sensor_id;sensor_type;location;lat;lon;timestamp;P1;durP1;ratioP1;P2;durP2;ratioP2
60370;SDS011;48550;40.588;49.684;2023-04-28T00:01:16;54.50;;;26.92;;
60370;SDS011;48550;40.588;49.684;2023-04-28T00:03:41;46.95;;;25.10;;
60370;SDS011;48550;40.588;49.684;2023-04-28T00:06:07;51.70;;;25.35;;
60370;SDS011;48550;40.588;49.684;2023-04-28T00:08:33;53.78;;;26.08;;
60370;SDS011;48550;40.588;49.684;2023-04-28T00:10:59;53.17;;;28.10;;
60370;SDS011;48550;40.588;49.684;2023-04-28T00:13:25;58.00;;;27.17;;
60370;SDS011;48550;40.588;49.684;2023-04-28T00:15:51;55.85;;;28.80;;
60370;SDS011;48550;40.588;49.684;2023-04-28T00:18:20;54.33;;;27.45;;
60370;SDS011;48550;40.588;49.684;2023-04-28T00:20:46;57.75;;;27.65;;
60370;SDS011;48550;40.588;49.684;2023-04-28T00:23:12;56.65;;;27.02;;
60370;SDS011;48550;40.588;49.684;2023-04-28T00:25:38;52.33;;;24.90;;
60370;SDS011;48550;40.588;49.684;2023-04-28T00:28:03;52.78;;;25.30;;
60370;SDS011;48550;40.588;49.684;2023-04-28T00:30:29;53.33;;;23.50;;
60370;SDS011;48550;40.588;49.684;2023-04-28T00:32:55;39.92;;;21.60;;
60370;SDS011;48550;40.588;49.684;2023-04-28T00:35:21;44.88;;;21.38;;
60370;SDS011;48550;40.588;49.684;2023-04-28T00:37:47;45.08;;;22.00;;
60370;SDS011;48550;40.588;49.684;2023-04-28T00:40:12;39.22;;;20.50;;
60370;SDS011;48550;40.588;49.684;2023-04-28T00:42:38;46.03;;;21.88;;
60370;SDS011;48550;40.588;49.684;2023-04-28T00:45:04;46.75;;;21.83;;
60370;SDS011;48550;40.588;49.684;2023-04-28T00:47:35;43.53;;;21.30;;
60370;SDS011;48550;40.588;49.684;2023-04-28T00:50:02;47.92;;;22.23;;
60370;SDS011;48550;40.588;49.684;2023-04-28T00:52:32;42.28;;;20.92;;
60370;SDS011;48550;40.588;49.684;2023-04-28T00:54:57;38.58;;;19.85;;
60370;SDS011;48550;40.588;49.684;2023-04-28T00:57:23;40.20;;;21.42;;
60370;SDS011;48550;40.588;49.684;2023-04-28T00:59:49;38.83;;;19.50;;
60370;SDS011;48550;40.588;49.684;2023-04-28T01:02:15;41.10;;;20.33;;
60370;SDS011;48550;40.588;49.684;2023-04-28T01:04:45;42.85;;;20.08;;
60370;SDS011;48550;40.588;49.684;2023-04-28T01:07:11;40.65;;;19.73;;
60370;SDS011;48550;40.588;49.684;2023-04-28T01:09:37;42.25;;;19.65;;
60370;SDS011;48550;40.588;49.684;2023-04-28T01:12:03;42.33;;;20.90;;
60370;SDS011;48550;40.588;49.684;2023-04-28T01:14:29;45.88;;;23.70;;
60370;SDS011;48550;40.588;49.684;2023-04-28T01:16:55;42.25;;;21.02;;
60370;SDS011;48550;40.588;49.684;2023-04-28T01:19:21;42.90;;;22.63;;
60370;SDS011;48550;40.588;49.684;2023-04-28T01:21:48;41.15;;;23.15;;
60370;SDS011;48550;40.588;49.684;2023-04-28T01:24:14;45.38;;;22.50;;
60370;SDS011;48550;40.588;49.684;2023-04-28T01:26:40;47.92;;;24.27;;
60370;SDS011;48550;40.588;49.684;2023-04-28T01:29:06;52.78;;;24.92;;
60370;SDS011;48550;40.588;49.684;2023-04-28T01:31:31;39.97;;;21.92;;
60370;SDS011;48550;40.588;49.684;2023-04-28T01:33:57;48.83;;;23.48;;
60370;SDS011;48550;40.588;49.684;2023-04-28T01:36:23;46.38;;;22.73;;
60370;SDS011;48550;40.588;49.684;2023-04-28T01:38:49;45.25;;;21.83;;
60370;SDS011;48550;40.588;49.684;2023-04-28T01:41:15;46.17;;;23.13;;
60370;SDS011;48550;40.588;49.684;2023-04-28T01:43:41;43.65;;;22.23;;
60370;SDS011;48550;40.588;49.684;2023-04-28T01:46:08;46.90;;;23.00;;
60370;SDS011;48550;40.588;49.684;2023-04-28T01:48:36;45.13;;;21.50;;
60370;SDS011;48550;40.588;49.684;2023-04-28T01:51:02;43.50;;;22.55;;
60370;SDS011;48550;40.588;49.684;2023-04-28T01:53:29;42.55;;;21.75;;
60370;SDS011;48550;40.588;49.684;2023-04-28T01:55:55;43.42;;;22.20;;
60370;SDS011;48550;40.588;49.684;2023-04-28T01:58:22;38.50;;;20.30;;
60370;SDS011;48550;40.588;49.684;2023-04-28T02:00:48;41.33;;;21.17;;
60370;SDS011;48550;40.588;49.684;2023-04-28T02:03:14;42.55;;;21.35;;
60370;SDS011;48550;40.588;49.684;2023-04-28T02:05:40;41.53;;;21.35;;
60370;SDS011;48550;40.588;49.684;2023-04-28T02:08:06;46.63;;;21.15;;
60370;SDS011;48550;40.588;49.684;2023-04-28T02:10:31;39.38;;;20.20;;
60370;SDS011;48550;40.588;49.684;2023-04-28T02:12:57;43.70;;;20.83;;
60370;SDS011;48550;40.588;49.684;2023-04-28T02:15:23;39.45;;;21.02;;
60370;SDS011;48550;40.588;49.684;2023-04-28T02:17:49;40.78;;;20.58;;
60370;SDS011;48550;40.588;49.684;2023-04-28T02:20:14;43.92;;;22.35;;
60370;SDS011;48550;40.588;49.684;2023-04-28T02:22:40;44.67;;;22.27;;
60370;SDS011;48550;40.588;49.684;2023-04-28T02:25:06;41.28;;;21.63;;
60370;SDS011;48550;40.588;49.684;2023-04-28T02:27:35;37.58;;;19.80;;
60370;SDS011;48550;40.588;49.684;2023-04-28T02:30:02;44.35;;;23.38;;
60370;SDS011;48550;40.588;49.684;2023-04-28T02:32:28;33.55;;;19.63;;
60370;SDS011;48550;40.588;49.684;2023-04-28T02:34:54;36.90;;;20.02;;
60370;SDS011;48550;40.588;49.684;2023-04-28T02:37:20;35.88;;;19.17;;
60370;SDS011;48550;40.588;49.684;2023-04-28T02:39:46;32.42;;;19.23;;
60370;SDS011;48550;40.588;49.684;2023-04-28T02:42:12;37.55;;;17.20;;
60370;SDS011;48550;40.588;49.684;2023-04-28T02:44:37;29.23;;;16.58;;
60370;SDS011;48550;40.588;49.684;2023-04-28T02:47:03;31.08;;;17.23;;
60370;SDS011;48550;40.588;49.684;2023-04-28T02:49:29;35.08;;;17.08;;
60370;SDS011;48550;40.588;49.684;2023-04-28T02:51:55;32.08;;;18.02;;
60370;SDS011;48550;40.588;49.684;2023-04-28T02:54:21;29.13;;;15.90;;
60370;SDS011;48550;40.588;49.684;2023-04-28T02:56:54;29.60;;;15.63;;
60370;SDS011;48550;40.588;49.684;2023-04-28T02:59:21;26.02;;;15.80;;
60370;SDS011;48550;40.588;49.684;2023-04-28T03:01:48;28.60;;;15.25;;
60370;SDS011;48550;40.588;49.684;2023-04-28T03:04:15;26.45;;;15.32;;
60370;SDS011;48550;40.588;49.684;2023-04-28T03:06:41;29.10;;;15.90;;
60370;SDS011;48550;40.588;49.684;2023-04-28T03:09:07;27.02;;;13.82;;
60370;SDS011;48550;40.588;49.684;2023-04-28T03:11:34;28.15;;;15.00;;
60370;SDS011;48550;40.588;49.684;2023-04-28T03:14:00;29.08;;;15.73;;
60370;SDS011;48550;40.588;49.684;2023-04-28T03:16:26;26.33;;;14.40;;
60370;SDS011;48550;40.588;49.684;2023-04-28T03:18:52;26.02;;;15.60;;
60370;SDS011;48550;40.588;49.684;2023-04-28T03:21:18;29.40;;;16.60;;
60370;SDS011;48550;40.588;49.684;2023-04-28T03:23:43;26.83;;;16.55;;
60370;SDS011;48550;40.588;49.684;2023-04-28T03:26:09;30.40;;;18.73;;
60370;SDS011;48550;40.588;49.684;2023-04-28T03:28:35;27.42;;;17.50;;
60370;SDS011;48550;40.588;49.684;2023-04-28T03:31:01;32.15;;;17.02;;
60370;SDS011;48550;40.588;49.684;2023-04-28T03:33:27;31.60;;;18.27;;
60370;SDS011;48550;40.588;49.684;2023-04-28T03:35:53;26.30;;;16.70;;
60370;SDS011;48550;40.588;49.684;2023-04-28T03:38:19;29.38;;;16.67;;
60370;SDS011;48550;40.588;49.684;2023-04-28T03:40:45;28.13;;;15.45;;
60370;SDS011;48550;40.588;49.684;2023-04-28T03:43:11;28.48;;;15.52;;
60370;SDS011;48550;40.588;49.684;2023-04-28T03:45:37;25.45;;;14.57;;
60370;SDS011;48550;40.588;49.684;2023-04-28T03:48:03;25.35;;;14.27;;
60370;SDS011;48550;40.588;49.684;2023-04-28T03:50:29;25.70;;;14.98;;
60370;SDS011;48550;40.588;49.684;2023-04-28T03:52:54;29.30;;;16.17;;
60370;SDS011;48550;40.588;49.684;2023-04-28T03:55:20;24.25;;;15.07;;
60370;SDS011;48550;40.588;49.684;2023-04-28T03:57:46;27.02;;;16.65;;
60370;SDS011;48550;40.588;49.684;2023-04-28T04:00:12;30.70;;;16.63;;
60370;SDS011;48550;40.588;49.684;2023-04-28T04:02:38;33.70;;;16.30;;
60370;SDS011;48550;40.588;49.684;2023-04-28T04:05:03;27.45;;;16.25;;
60370;SDS011;48550;40.588;49.684;2023-04-28T04:07:30;30.92;;;14.27;;
60370;SDS011;48550;40.588;49.684;2023-04-28T04:09:55;24.42;;;13.35;;
60370;SDS011;48550;40.588;49.684;2023-04-28T04:12:21;22.73;;;13.52;;
60370;SDS011;48550;40.588;49.684;2023-04-28T04:14:47;23.30;;;13.02;;
60370;SDS011;48550;40.588;49.684;2023-04-28T04:17:12;19.88;;;11.63;;
60370;SDS011;48550;40.588;49.684;2023-04-28T04:19:38;22.52;;;11.80;;
60370;SDS011;48550;40.588;49.684;2023-04-28T04:22:04;22.33;;;12.60;;
60370;SDS011;48550;40.588;49.684;2023-04-28T04:24:29;24.25;;;13.73;;
60370;SDS011;48550;40.588;49.684;2023-04-28T04:26:55;23.88;;;13.38;;
60370;SDS011;48550;40.588;49.684;2023-04-28T04:29:21;25.45;;;14.73;;
60370;SDS011;48550;40.588;49.684;2023-04-28T04:31:46;21.10;;;12.77;;
60370;SDS011;48550;40.588;49.684;2023-04-28T04:34:13;31.17;;;13.82;;
60370;SDS011;48550;40.588;49.684;2023-04-28T04:36:39;23.58;;;13.30;;
60370;SDS011;48550;40.588;49.684;2023-04-28T04:39:05;24.60;;;13.18;;
60370;SDS011;48550;40.588;49.684;2023-04-28T04:41:30;26.45;;;13.82;;
60370;SDS011;48550;40.588;49.684;2023-04-28T04:43:56;23.13;;;12.50;;
60370;SDS011;48550;40.588;49.684;2023-04-28T04:46:22;21.27;;;12.20;;
60370;SDS011;48550;40.588;49.684;2023-04-28T04:48:47;18.20;;;10.88;;
60370;SDS011;48550;40.588;49.684;2023-04-28T04:51:13;22.42;;;11.48;;
60370;SDS011;48550;40.588;49.684;2023-04-28T04:53:39;19.05;;;11.07;;
60370;SDS011;48550;40.588;49.684;2023-04-28T04:56:04;21.35;;;11.63;;
60370;SDS011;48550;40.588;49.684;2023-04-28T04:58:30;23.10;;;11.43;;
60370;SDS011;48550;40.588;49.684;2023-04-28T05:00:56;24.13;;;12.25;;
60370;SDS011;48550;40.588;49.684;2023-04-28T05:03:22;21.90;;;11.48;;
60370;SDS011;48550;40.588;49.684;2023-04-28T05:05:48;21.35;;;11.38;;
60370;SDS011;48550;40.588;49.684;2023-04-28T05:08:14;20.77;;;12.07;;
60370;SDS011;48550;40.588;49.684;2023-04-28T05:10:40;17.70;;;11.10;;
60370;SDS011;48550;40.588;49.684;2023-04-28T05:13:06;18.60;;;11.63;;
60370;SDS011;48550;40.588;49.684;2023-04-28T05:15:31;18.75;;;11.98;;
60370;SDS011;48550;40.588;49.684;2023-04-28T05:17:57;23.58;;;12.15;;
60370;SDS011;48550;40.588;49.684;2023-04-28T05:20:23;22.58;;;13.65;;
60370;SDS011;48550;40.588;49.684;2023-04-28T05:22:48;23.13;;;13.18;;
60370;SDS011;48550;40.588;49.684;2023-04-28T05:25:15;25.17;;;12.13;;
60370;SDS011;48550;40.588;49.684;2023-04-28T05:27:40;24.35;;;11.55;;
60370;SDS011;48550;40.588;49.684;2023-04-28T05:30:07;21.90;;;12.10;;
60370;SDS011;48550;40.588;49.684;2023-04-28T05:32:34;26.20;;;13.13;;
60370;SDS011;48550;40.588;49.684;2023-04-28T05:35:01;24.70;;;13.40;;
60370;SDS011;48550;40.588;49.684;2023-04-28T05:37:27;24.58;;;12.63;;
60370;SDS011;48550;40.588;49.684;2023-04-28T05:39:52;25.85;;;13.95;;
60370;SDS011;48550;40.588;49.684;2023-04-28T05:42:19;23.08;;;12.40;;
60370;SDS011;48550;40.588;49.684;2023-04-28T05:44:44;22.33;;;12.38;;
60370;SDS011;48550;40.588;49.684;2023-04-28T05:47:10;21.88;;;13.15;;
60370;SDS011;48550;40.588;49.684;2023-04-28T05:49:36;28.27;;;13.20;;
60370;SDS011;48550;40.588;49.684;2023-04-28T05:52:01;19.52;;;12.80;;
60370;SDS011;48550;40.588;49.684;2023-04-28T05:54:28;21.95;;;12.93;;
60370;SDS011;48550;40.588;49.684;2023-04-28T05:56:54;23.92;;;13.50;;
60370;SDS011;48550;40.588;49.684;2023-04-28T05:59:20;22.92;;;12.90;;
60370;SDS011;48550;40.588;49.684;2023-04-28T06:01:46;25.50;;;12.77;;
60370;SDS011;48550;40.588;49.684;2023-04-28T06:04:12;29.42;;;12.50;;
60370;SDS011;48550;40.588;49.684;2023-04-28T06:06:38;22.27;;;12.75;;
60370;SDS011;48550;40.588;49.684;2023-04-28T06:09:03;23.30;;;13.65;;
60370;SDS011;48550;40.588;49.684;2023-04-28T06:11:29;25.42;;;14.20;;
60370;SDS011;48550;40.588;49.684;2023-04-28T06:13:55;21.35;;;13.27;;
60370;SDS011;48550;40.588;49.684;2023-04-28T06:16:21;20.70;;;12.40;;
60370;SDS011;48550;40.588;49.684;2023-04-28T06:18:47;21.60;;;12.43;;
60370;SDS011;48550;40.588;49.684;2023-04-28T06:21:13;21.45;;;11.95;;
60370;SDS011;48550;40.588;49.684;2023-04-28T06:23:40;18.27;;;12.15;;
60370;SDS011;48550;40.588;49.684;2023-04-28T06:26:06;24.58;;;12.05;;
60370;SDS011;48550;40.588;49.684;2023-04-28T06:28:33;20.35;;;10.85;;
60370;SDS011;48550;40.588;49.684;2023-04-28T06:30:59;20.58;;;11.32;;
60370;SDS011;48550;40.588;49.684;2023-04-28T06:33:25;19.52;;;11.10;;
60370;SDS011;48550;40.588;49.684;2023-04-28T06:35:51;21.52;;;12.00;;
60370;SDS011;48550;40.588;49.684;2023-04-28T06:38:17;18.70;;;10.70;;
60370;SDS011;48550;40.588;49.684;2023-04-28T06:40:44;20.35;;;11.65;;
60370;SDS011;48550;40.588;49.684;2023-04-28T06:43:12;20.90;;;11.23;;
60370;SDS011;48550;40.588;49.684;2023-04-28T06:45:38;20.15;;;10.80;;
60370;SDS011;48550;40.588;49.684;2023-04-28T06:48:04;23.77;;;10.98;;
60370;SDS011;48550;40.588;49.684;2023-04-28T06:50:30;20.80;;;11.90;;
60370;SDS011;48550;40.588;49.684;2023-04-28T06:52:56;18.80;;;10.88;;
60370;SDS011;48550;40.588;49.684;2023-04-28T06:55:23;20.80;;;10.85;;
60370;SDS011;48550;40.588;49.684;2023-04-28T06:57:49;23.88;;;10.93;;
60370;SDS011;48550;40.588;49.684;2023-04-28T07:00:15;23.45;;;10.85;;
60370;SDS011;48550;40.588;49.684;2023-04-28T07:02:41;25.98;;;10.50;;
60370;SDS011;48550;40.588;49.684;2023-04-28T07:05:07;24.90;;;10.50;;
60370;SDS011;48550;40.588;49.684;2023-04-28T07:07:33;22.80;;;10.73;;
60370;SDS011;48550;40.588;49.684;2023-04-28T07:09:59;18.75;;;10.40;;
60370;SDS011;48550;40.588;49.684;2023-04-28T07:12:25;21.52;;;10.38;;
60370;SDS011;48550;40.588;49.684;2023-04-28T07:14:51;23.10;;;11.13;;
60370;SDS011;48550;40.588;49.684;2023-04-28T07:17:17;20.90;;;9.75;;
60370;SDS011;48550;40.588;49.684;2023-04-28T07:19:43;18.15;;;9.68;;
60370;SDS011;48550;40.588;49.684;2023-04-28T07:22:09;19.90;;;9.82;;
60370;SDS011;48550;40.588;49.684;2023-04-28T07:24:34;20.40;;;9.77;;
60370;SDS011;48550;40.588;49.684;2023-04-28T07:27:00;21.38;;;9.90;;
60370;SDS011;48550;40.588;49.684;2023-04-28T07:29:27;19.20;;;9.90;;
60370;SDS011;48550;40.588;49.684;2023-04-28T07:31:58;16.60;;;9.02;;
60370;SDS011;48550;40.588;49.684;2023-04-28T07:34:25;16.25;;;9.07;;
60370;SDS011;48550;40.588;49.684;2023-04-28T07:36:51;22.70;;;9.18;;
60370;SDS011;48550;40.588;49.684;2023-04-28T07:39:17;19.90;;;8.95;;
60370;SDS011;48550;40.588;49.684;2023-04-28T07:41:43;21.42;;;10.50;;
60370;SDS011;48550;40.588;49.684;2023-04-28T07:44:08;20.48;;;11.43;;
60370;SDS011;48550;40.588;49.684;2023-04-28T07:46:34;23.83;;;11.07;;
60370;SDS011;48550;40.588;49.684;2023-04-28T07:49:00;28.73;;;11.45;;
60370;SDS011;48550;40.588;49.684;2023-04-28T07:51:27;28.75;;;13.57;;
60370;SDS011;48550;40.588;49.684;2023-04-28T07:53:53;24.02;;;12.23;;
60370;SDS011;48550;40.588;49.684;2023-04-28T07:56:18;20.40;;;12.23;;
60370;SDS011;48550;40.588;49.684;2023-04-28T07:58:46;23.88;;;12.23;;
60370;SDS011;48550;40.588;49.684;2023-04-28T08:01:12;26.35;;;11.90;;
60370;SDS011;48550;40.588;49.684;2023-04-28T08:03:37;31.38;;;13.70;;
60370;SDS011;48550;40.588;49.684;2023-04-28T08:06:03;31.02;;;13.10;;
60370;SDS011;48550;40.588;49.684;2023-04-28T08:08:29;22.42;;;11.52;;
60370;SDS011;48550;40.588;49.684;2023-04-28T08:10:55;20.17;;;11.55;;
60370;SDS011;48550;40.588;49.684;2023-04-28T08:13:21;25.33;;;13.07;;
60370;SDS011;48550;40.588;49.684;2023-04-28T08:15:47;24.30;;;12.10;;
60370;SDS011;48550;40.588;49.684;2023-04-28T08:18:13;23.67;;;12.63;;
60370;SDS011;48550;40.588;49.684;2023-04-28T08:20:39;25.95;;;12.30;;
60370;SDS011;48550;40.588;49.684;2023-04-28T08:23:05;27.05;;;12.15;;
60370;SDS011;48550;40.588;49.684;2023-04-28T08:25:32;33.50;;;12.70;;
60370;SDS011;48550;40.588;49.684;2023-04-28T08:27:57;28.13;;;12.77;;
60370;SDS011;48550;40.588;49.684;2023-04-28T08:30:23;24.67;;;13.50;;
60370;SDS011;48550;40.588;49.684;2023-04-28T08:32:49;29.00;;;12.32;;
60370;SDS011;48550;40.588;49.684;2023-04-28T08:35:15;21.50;;;11.85;;
60370;SDS011;48550;40.588;49.684;2023-04-28T08:37:41;29.45;;;12.32;;
60370;SDS011;48550;40.588;49.684;2023-04-28T08:40:07;22.27;;;11.82;;
60370;SDS011;48550;40.588;49.684;2023-04-28T08:42:36;27.35;;;11.63;;
60370;SDS011;48550;40.588;49.684;2023-04-28T08:45:03;30.48;;;11.98;;
60370;SDS011;48550;40.588;49.684;2023-04-28T08:50:03;21.55;;;10.57;;
60370;SDS011;48550;40.588;49.684;2023-04-28T08:52:30;27.08;;;12.55;;
60370;SDS011;48550;40.588;49.684;2023-04-28T08:55:00;27.02;;;12.10;;
60370;SDS011;48550;40.588;49.684;2023-04-28T08:57:32;22.88;;;11.50;;
60370;SDS011;48550;40.588;49.684;2023-04-28T09:00:03;27.60;;;11.23;;
60370;SDS011;48550;40.588;49.684;2023-04-28T09:02:29;23.48;;;11.35;;
60370;SDS011;48550;40.588;49.684;2023-04-28T09:04:55;27.85;;;12.07;;
60370;SDS011;48550;40.588;49.684;2023-04-28T09:07:21;29.40;;;13.30;;
60370;SDS011;48550;40.588;49.684;2023-04-28T09:09:47;30.73;;;12.65;;
60370;SDS011;48550;40.588;49.684;2023-04-28T09:12:13;29.88;;;13.20;;
60370;SDS011;48550;40.588;49.684;2023-04-28T09:14:39;22.85;;;12.32;;
60370;SDS011;48550;40.588;49.684;2023-04-28T09:17:11;29.13;;;13.00;;
60370;SDS011;48550;40.588;49.684;2023-04-28T09:19:38;27.27;;;13.15;;
60370;SDS011;48550;40.588;49.684;2023-04-28T09:22:06;26.58;;;12.52;;
60370;SDS011;48550;40.588;49.684;2023-04-28T09:24:33;26.30;;;12.18;;
60370;SDS011;48550;40.588;49.684;2023-04-28T09:27:03;26.80;;;13.20;;
60370;SDS011;48550;40.588;49.684;2023-04-28T09:29:35;28.00;;;13.68;;
60370;SDS011;48550;40.588;49.684;2023-04-28T09:32:14;29.48;;;14.43;;
60370;SDS011;48550;40.588;49.684;2023-04-28T09:34:49;28.40;;;14.10;;
60370;SDS011;48550;40.588;49.684;2023-04-28T09:39:45;35.10;;;13.82;;
60370;SDS011;48550;40.588;49.684;2023-04-28T09:44:59;27.70;;;15.25;;
60370;SDS011;48550;40.588;49.684;2023-04-28T09:47:36;31.27;;;13.77;;
60370;SDS011;48550;40.588;49.684;2023-04-28T09:50:04;33.65;;;13.98;;
60370;SDS011;48550;40.588;49.684;2023-04-28T09:52:33;24.73;;;12.55;;
60370;SDS011;48550;40.588;49.684;2023-04-28T09:55:01;26.10;;;11.90;;
60370;SDS011;48550;40.588;49.684;2023-04-28T09:57:29;22.52;;;12.90;;
60370;SDS011;48550;40.588;49.684;2023-04-28T09:59:57;23.23;;;11.95;;
60370;SDS011;48550;40.588;49.684;2023-04-28T10:02:24;21.60;;;11.07;;
60370;SDS011;48550;40.588;49.684;2023-04-28T10:04:51;21.13;;;9.98;;
60370;SDS011;48550;40.588;49.684;2023-04-28T10:07:17;22.90;;;10.80;;
60370;SDS011;48550;40.588;49.684;2023-04-28T10:09:47;17.88;;;9.90;;
60370;SDS011;48550;40.588;49.684;2023-04-28T10:12:15;17.70;;;9.60;;
60370;SDS011;48550;40.588;49.684;2023-04-28T10:14:42;20.70;;;10.02;;
60370;SDS011;48550;40.588;49.684;2023-04-28T10:17:09;20.70;;;10.73;;
60370;SDS011;48550;40.588;49.684;2023-04-28T10:19:35;20.45;;;10.57;;
60370;SDS011;48550;40.588;49.684;2023-04-28T10:22:06;22.63;;;10.02;;
60370;SDS011;48550;40.588;49.684;2023-04-28T10:24:33;25.80;;;10.63;;
60370;SDS011;48550;40.588;49.684;2023-04-28T10:27:29;23.45;;;9.85;;
60370;SDS011;48550;40.588;49.684;2023-04-28T10:30:09;23.55;;;10.13;;
60370;SDS011;48550;40.588;49.684;2023-04-28T10:32:38;20.92;;;9.88;;
60370;SDS011;48550;40.588;49.684;2023-04-28T10:38:32;21.33;;;9.85;;
60370;SDS011;48550;40.588;49.684;2023-04-28T10:40:41;19.88;;;10.65;;
60370;SDS011;48550;40.588;49.684;2023-04-28T10:43:54;20.52;;;9.98;;
60370;SDS011;48550;40.588;49.684;2023-04-28T10:56:10;22.40;;;10.57;;
60370;SDS011;48550;40.588;49.684;2023-04-28T10:58:37;17.27;;;10.65;;
60370;SDS011;48550;40.588;49.684;2023-04-28T11:09:00;22.60;;;10.68;;
60370;SDS011;48550;40.588;49.684;2023-04-28T11:12:24;27.42;;;10.48;;
60370;SDS011;48550;40.588;49.684;2023-04-28T11:16:54;22.25;;;10.32;;
60370;SDS011;48550;40.588;49.684;2023-04-28T11:19:24;20.65;;;10.00;;
60370;SDS011;48550;40.588;49.684;2023-04-28T11:21:52;24.67;;;10.23;;
60370;SDS011;48550;40.588;49.684;2023-04-28T11:24:20;17.75;;;10.27;;
60370;SDS011;48550;40.588;49.684;2023-04-28T11:26:46;18.13;;;10.75;;
60370;SDS011;48550;40.588;49.684;2023-04-28T11:29:12;17.73;;;10.63;;
60370;SDS011;48550;40.588;49.684;2023-04-28T11:31:50;20.35;;;10.73;;
60370;SDS011;48550;40.588;49.684;2023-04-28T11:34:19;18.00;;;9.55;;
60370;SDS011;48550;40.588;49.684;2023-04-28T11:36:46;17.50;;;10.57;;
60370;SDS011;48550;40.588;49.684;2023-04-28T11:39:12;20.63;;;11.40;;
60370;SDS011;48550;40.588;49.684;2023-04-28T11:41:39;21.10;;;10.60;;
60370;SDS011;48550;40.588;49.684;2023-04-28T11:44:10;19.40;;;9.50;;
60370;SDS011;48550;40.588;49.684;2023-04-28T11:46:49;19.75;;;10.02;;
60370;SDS011;48550;40.588;49.684;2023-04-28T11:49:23;14.35;;;9.40;;
60370;SDS011;48550;40.588;49.684;2023-04-28T11:51:52;20.40;;;11.00;;
60370;SDS011;48550;40.588;49.684;2023-04-28T11:54:22;19.73;;;9.38;;
60370;SDS011;48550;40.588;49.684;2023-04-28T11:56:50;17.20;;;10.05;;
60370;SDS011;48550;40.588;49.684;2023-04-28T11:59:17;22.38;;;11.23;;
60370;SDS011;48550;40.588;49.684;2023-04-28T12:01:48;19.00;;;10.95;;
60370;SDS011;48550;40.588;49.684;2023-04-28T12:04:37;21.77;;;10.63;;
60370;SDS011;48550;40.588;49.684;2023-04-28T12:07:12;24.85;;;10.95;;
60370;SDS011;48550;40.588;49.684;2023-04-28T12:09:40;24.58;;;10.75;;
60370;SDS011;48550;40.588;49.684;2023-04-28T12:12:14;22.37;;;10.70;;
60370;SDS011;48550;40.588;49.684;2023-04-28T12:14:57;18.23;;;10.25;;
60370;SDS011;48550;40.588;49.684;2023-04-28T12:17:32;21.95;;;11.18;;
60370;SDS011;48550;40.588;49.684;2023-04-28T12:20:01;19.20;;;10.90;;
60370;SDS011;48550;40.588;49.684;2023-04-28T12:22:28;24.67;;;12.00;;
60370;SDS011;48550;40.588;49.684;2023-04-28T12:25:04;23.45;;;10.80;;
60370;SDS011;48550;40.588;49.684;2023-04-28T12:27:37;17.65;;;10.77;;
60370;SDS011;48550;40.588;49.684;2023-04-28T12:32:45;18.70;;;9.82;;
60370;SDS011;48550;40.588;49.684;2023-04-28T12:35:12;22.77;;;11.45;;
60370;SDS011;48550;40.588;49.684;2023-04-28T12:37:37;27.65;;;10.75;;
60370;SDS011;48550;40.588;49.684;2023-04-28T12:40:04;19.88;;;10.98;;
60370;SDS011;48550;40.588;49.684;2023-04-28T12:42:30;22.70;;;11.60;;
60370;SDS011;48550;40.588;49.684;2023-04-28T12:44:56;25.08;;;12.38;;
60370;SDS011;48550;40.588;49.684;2023-04-28T12:47:22;24.23;;;10.32;;
60370;SDS011;48550;40.588;49.684;2023-04-28T12:49:48;23.98;;;11.43;;
60370;SDS011;48550;40.588;49.684;2023-04-28T12:52:16;16.83;;;9.85;;
60370;SDS011;48550;40.588;49.684;2023-04-28T12:54:41;22.02;;;11.57;;
60370;SDS011;48550;40.588;49.684;2023-04-28T12:57:14;19.73;;;9.02;;
60370;SDS011;48550;40.588;49.684;2023-04-28T12:59:41;22.33;;;9.07;;
60370;SDS011;48550;40.588;49.684;2023-04-28T13:02:07;16.55;;;9.18;;
60370;SDS011;48550;40.588;49.684;2023-04-28T13:04:33;20.63;;;8.98;;
60370;SDS011;48550;40.588;49.684;2023-04-28T13:06:59;19.92;;;9.40;;
60370;SDS011;48550;40.588;49.684;2023-04-28T13:09:25;17.83;;;8.93;;
60370;SDS011;48550;40.588;49.684;2023-04-28T13:11:51;22.50;;;8.68;;
60370;SDS011;48550;40.588;49.684;2023-04-28T13:14:20;18.23;;;9.27;;
60370;SDS011;48550;40.588;49.684;2023-04-28T13:16:46;22.75;;;9.35;;
60370;SDS011;48550;40.588;49.684;2023-04-28T13:19:13;21.40;;;9.35;;
60370;SDS011;48550;40.588;49.684;2023-04-28T13:21:42;19.58;;;8.75;;
60370;SDS011;48550;40.588;49.684;2023-04-28T13:24:11;22.95;;;9.73;;
60370;SDS011;48550;40.588;49.684;2023-04-28T13:26:38;19.33;;;8.93;;
60370;SDS011;48550;40.588;49.684;2023-04-28T13:29:04;28.40;;;10.73;;
60370;SDS011;48550;40.588;49.684;2023-04-28T13:31:32;25.35;;;9.63;;
60370;SDS011;48550;40.588;49.684;2023-04-28T13:33:58;18.27;;;9.52;;
60370;SDS011;48550;40.588;49.684;2023-04-28T13:36:26;20.60;;;9.85;;
60370;SDS011;48550;40.588;49.684;2023-04-28T13:38:53;20.20;;;10.23;;
60370;SDS011;48550;40.588;49.684;2023-04-28T13:41:20;23.90;;;10.75;;
60370;SDS011;48550;40.588;49.684;2023-04-28T13:43:46;21.73;;;11.88;;
60370;SDS011;48550;40.588;49.684;2023-04-28T13:46:12;24.27;;;12.23;;
60370;SDS011;48550;40.588;49.684;2023-04-28T13:48:38;21.20;;;10.73;;
60370;SDS011;48550;40.588;49.684;2023-04-28T13:51:04;21.45;;;12.25;;
60370;SDS011;48550;40.588;49.684;2023-04-28T13:53:31;21.00;;;11.10;;
60370;SDS011;48550;40.588;49.684;2023-04-28T13:55:58;24.85;;;11.93;;
60370;SDS011;48550;40.588;49.684;2023-04-28T13:58:24;22.00;;;11.95;;
60370;SDS011;48550;40.588;49.684;2023-04-28T14:00:53;21.92;;;11.75;;
60370;SDS011;48550;40.588;49.684;2023-04-28T14:03:19;22.83;;;12.40;;
60370;SDS011;48550;40.588;49.684;2023-04-28T14:05:47;26.65;;;12.70;;
60370;SDS011;48550;40.588;49.684;2023-04-28T14:08:14;23.85;;;11.73;;
60370;SDS011;48550;40.588;49.684;2023-04-28T14:10:41;26.77;;;12.48;;
60370;SDS011;48550;40.588;49.684;2023-04-28T14:13:06;27.17;;;12.68;;
60370;SDS011;48550;40.588;49.684;2023-04-28T14:15:32;25.55;;;12.10;;
60370;SDS011;48550;40.588;49.684;2023-04-28T14:17:58;29.67;;;13.02;;
60370;SDS011;48550;40.588;49.684;2023-04-28T14:20:23;27.25;;;12.13;;
60370;SDS011;48550;40.588;49.684;2023-04-28T14:22:49;27.27;;;13.10;;
60370;SDS011;48550;40.588;49.684;2023-04-28T14:25:15;29.98;;;13.30;;
60370;SDS011;48550;40.588;49.684;2023-04-28T14:27:42;27.23;;;14.23;;
60370;SDS011;48550;40.588;49.684;2023-04-28T14:30:08;27.02;;;13.80;;
60370;SDS011;48550;40.588;49.684;2023-04-28T14:32:34;23.35;;;13.60;;
60370;SDS011;48550;40.588;49.684;2023-04-28T14:35:02;28.98;;;13.93;;
60370;SDS011;48550;40.588;49.684;2023-04-28T14:37:30;29.98;;;15.88;;
60370;SDS011;48550;40.588;49.684;2023-04-28T14:39:57;38.50;;;19.48;;
60370;SDS011;48550;40.588;49.684;2023-04-28T14:42:29;41.15;;;20.38;;
60370;SDS011;48550;40.588;49.684;2023-04-28T14:44:57;34.50;;;16.10;;